createdAt,value
2018-01-06T00:00:43.247Z,5.30
2018-01-06T00:03:09.843Z,5.30
2018-01-06T00:05:36.188Z,5.30
2018-01-06T00:08:02.466Z,5.20
2018-01-06T00:10:28.664Z,5.30
2018-01-06T00:12:54.901Z,5.40
2018-01-06T00:15:21.143Z,5.40
2018-01-06T00:17:47.341Z,5.40
2018-01-06T00:20:13.595Z,5.40
2018-01-06T00:22:40.679Z,5.30
2018-01-06T00:25:07.053Z,5.30
2018-01-06T00:27:33.402Z,5.30
2018-01-06T00:29:59.611Z,5.30
2018-01-06T00:32:25.797Z,5.40
2018-01-06T00:34:52.074Z,5.40
2018-01-06T00:37:18.251Z,5.40
2018-01-06T00:39:44.483Z,5.30
2018-01-06T00:42:10.621Z,5.40
2018-01-06T00:44:36.761Z,5.60
2018-01-06T00:47:02.951Z,5.70
2018-01-06T00:49:29.076Z,5.70
2018-01-06T00:51:55.333Z,5.70
2018-01-06T00:54:21.592Z,5.70
2018-01-06T00:56:48.029Z,5.70
2018-01-06T00:59:14.174Z,5.70
2018-01-06T01:01:40.917Z,5.70
2018-01-06T01:04:07.182Z,5.80
2018-01-06T01:06:33.465Z,5.80
2018-01-06T01:09:00.430Z,5.70
2018-01-06T01:11:26.637Z,5.60
2018-01-06T01:13:53.688Z,5.60
2018-01-06T01:16:20.555Z,5.50
2018-01-06T01:18:46.852Z,5.50
2018-01-06T01:21:13.773Z,5.40
2018-01-06T01:23:39.954Z,5.40
2018-01-06T01:26:06.171Z,5.40
2018-01-06T01:28:32.382Z,5.40
2018-01-06T01:30:58.528Z,5.40
2018-01-06T01:33:24.903Z,5.50
2018-01-06T01:35:52.346Z,5.60
2018-01-06T01:38:18.463Z,5.50
2018-01-06T01:40:44.708Z,5.60
2018-01-06T01:43:13.187Z,5.70
2018-01-06T01:45:39.329Z,5.70
2018-01-06T01:48:05.516Z,5.80
2018-01-06T01:50:31.660Z,5.80
2018-01-06T01:52:57.855Z,5.70
2018-01-06T01:55:24.198Z,5.80
2018-01-06T01:57:51.259Z,5.90
2018-01-06T02:00:17.690Z,5.80
2018-01-06T02:02:43.980Z,5.90
2018-01-06T02:05:10.262Z,5.90
2018-01-06T02:07:36.437Z,5.80
2018-01-06T02:10:02.688Z,5.80
2018-01-06T02:12:28.891Z,5.90
2018-01-06T02:14:55.062Z,5.90
2018-01-06T02:17:22.535Z,5.90
2018-01-06T02:19:49.439Z,5.80
2018-01-06T02:22:15.663Z,5.80
2018-01-06T02:24:41.866Z,5.80
2018-01-06T02:27:08.025Z,5.80
2018-01-06T02:29:34.211Z,5.80
2018-01-06T02:32:00.338Z,5.80
2018-01-06T02:34:26.505Z,5.80
2018-01-06T02:36:52.734Z,5.80
2018-01-06T02:39:18.906Z,5.80
2018-01-06T02:41:45.055Z,5.80
2018-01-06T02:44:11.226Z,5.80
2018-01-06T02:46:37.354Z,5.80
2018-01-06T02:49:03.622Z,5.80
2018-01-06T02:51:29.788Z,5.70
2018-01-06T02:53:56.818Z,5.70
2018-01-06T02:56:23.185Z,5.60
2018-01-06T02:58:50.063Z,5.50
2018-01-06T03:01:16.285Z,5.50
2018-01-06T03:03:42.495Z,5.50
2018-01-06T03:06:09.720Z,5.50
2018-01-06T03:08:35.882Z,5.50
2018-01-06T03:11:02.174Z,5.50
2018-01-06T03:13:28.416Z,5.40
2018-01-06T03:15:55.424Z,5.30
2018-01-06T03:18:21.744Z,5.30
2018-01-06T03:20:48.184Z,5.30
2018-01-06T03:23:14.462Z,5.20
2018-01-06T03:25:41.378Z,5.20
2018-01-06T03:28:07.645Z,5.20
2018-01-06T03:30:33.893Z,5.20
2018-01-06T03:33:00.167Z,5.20
2018-01-06T03:35:27.151Z,5.10
2018-01-06T03:37:53.307Z,5.10
2018-01-06T03:40:19.479Z,5.10
2018-01-06T03:42:46.402Z,5.00
2018-01-06T03:45:12.555Z,5.00
2018-01-06T03:47:38.942Z,5.00
2018-01-06T03:50:05.164Z,5.00
2018-01-06T03:52:31.431Z,5.00
2018-01-06T03:54:58.308Z,4.90
2018-01-06T03:57:24.511Z,4.90
2018-01-06T03:59:51.501Z,4.90
2018-01-06T04:02:17.730Z,4.80
2018-01-06T04:04:43.925Z,4.80
2018-01-06T04:07:10.126Z,4.90
2018-01-06T04:09:36.989Z,5.00
2018-01-06T04:12:03.156Z,5.00
2018-01-06T04:14:29.502Z,5.10
2018-01-06T04:16:55.659Z,5.10
2018-01-06T04:19:21.946Z,5.10
2018-01-06T04:21:48.136Z,5.10
2018-01-06T04:24:14.406Z,5.10
2018-01-06T04:26:40.676Z,5.00
2018-01-06T04:29:07.157Z,4.90
2018-01-06T04:31:34.164Z,4.80
2018-01-06T04:34:00.433Z,4.80
2018-01-06T04:36:26.739Z,4.80
2018-01-06T04:38:52.899Z,4.80
2018-01-06T04:41:19.839Z,4.70
2018-01-06T04:43:46.692Z,4.70
2018-01-06T04:46:13.573Z,4.50
2018-01-06T04:48:39.723Z,4.50
2018-01-06T04:51:06.071Z,4.50
2018-01-06T04:53:33.019Z,4.50
2018-01-06T04:55:59.236Z,4.50
2018-01-06T04:58:26.957Z,4.50
2018-01-06T05:00:53.296Z,4.50
2018-01-06T05:03:19.551Z,4.50
2018-01-06T05:05:47.313Z,4.40
2018-01-06T05:08:13.755Z,4.40
2018-01-06T05:10:40.065Z,4.50
2018-01-06T05:13:07.325Z,4.40
2018-01-06T05:15:33.424Z,4.40
2018-01-06T05:17:59.702Z,4.40
2018-01-06T05:20:26.568Z,4.40
2018-01-06T05:22:52.785Z,4.40
2018-01-06T05:25:19.664Z,4.40
2018-01-06T05:27:45.750Z,4.30
2018-01-06T05:30:12.048Z,4.50
2018-01-06T05:32:38.914Z,4.40
2018-01-06T05:35:05.926Z,4.30
2018-01-06T05:37:32.178Z,4.30
2018-01-06T05:39:59.106Z,4.20
2018-01-06T05:42:25.497Z,4.10
2018-01-06T05:44:51.663Z,4.10
2018-01-06T05:47:19.394Z,4.00
2018-01-06T05:49:45.654Z,4.00
2018-01-06T05:52:11.864Z,4.00
2018-01-06T05:54:38.600Z,4.00
2018-01-06T05:57:04.890Z,3.90
2018-01-06T05:59:31.281Z,3.80
2018-01-06T06:01:58.438Z,3.80
2018-01-06T06:04:24.737Z,3.80
2018-01-06T06:06:51.047Z,3.80
2018-01-06T06:09:17.439Z,3.80
2018-01-06T06:11:44.421Z,3.60
2018-01-06T06:14:11.015Z,3.60
2018-01-06T06:16:37.886Z,3.40
2018-01-06T06:19:04.159Z,3.40
2018-01-06T06:21:31.531Z,3.30
2018-01-06T06:23:58.457Z,3.30
2018-01-06T06:26:26.206Z,3.20
2018-01-06T06:28:52.398Z,3.20
2018-01-06T06:31:19.619Z,3.10
2018-01-06T06:33:46.847Z,3.00
2018-01-06T06:36:14.057Z,3.00
2018-01-06T06:38:40.297Z,2.90
2018-01-06T06:41:06.666Z,2.90
2018-01-06T06:43:32.900Z,2.80
2018-01-06T06:45:59.887Z,2.70
2018-01-06T06:48:26.285Z,2.70
2018-01-06T06:50:53.416Z,2.60
2018-01-06T06:53:19.754Z,2.60
2018-01-06T06:55:46.807Z,2.40
2018-01-06T06:58:13.803Z,2.40
2018-01-06T07:00:40.134Z,2.40
2018-01-06T07:03:06.341Z,2.40
2018-01-06T07:05:32.909Z,2.30
2018-01-06T07:07:59.174Z,2.30
2018-01-06T07:10:26.128Z,2.20
2018-01-06T07:12:52.391Z,2.20
2018-01-06T07:15:18.601Z,2.20
2018-01-06T07:17:44.768Z,2.20
2018-01-06T07:20:11.769Z,2.20
2018-01-06T07:22:37.891Z,2.20
2018-01-06T07:25:04.271Z,2.20
2018-01-06T07:27:31.185Z,2.20
2018-01-06T07:29:57.520Z,2.20
2018-01-06T07:32:23.718Z,2.20
2018-01-06T07:34:49.845Z,2.20
2018-01-06T07:37:16.100Z,2.10
2018-01-06T07:39:42.467Z,2.20
2018-01-06T07:42:09.515Z,2.20
2018-01-06T07:44:36.457Z,2.20
2018-01-06T07:47:03.441Z,2.20
2018-01-06T07:49:29.653Z,2.20
2018-01-06T07:51:55.857Z,2.30
2018-01-06T07:54:22.879Z,2.30
2018-01-06T07:56:50.596Z,2.30
2018-01-06T07:59:16.891Z,2.30
2018-01-06T08:01:43.837Z,2.40
2018-01-06T08:04:10.821Z,2.40
2018-01-06T08:06:37.054Z,2.40
2018-01-06T08:09:03.348Z,2.40
2018-01-06T08:11:29.714Z,2.50
2018-01-06T08:13:56.010Z,2.50
2018-01-06T08:16:22.143Z,2.60
2018-01-06T08:18:48.324Z,2.60
2018-01-06T08:21:14.490Z,2.60
2018-01-06T08:23:40.776Z,2.70
2018-01-06T08:26:06.930Z,2.70
2018-01-06T08:28:33.120Z,2.70
2018-01-06T08:30:59.324Z,2.80
2018-01-06T08:33:25.563Z,2.90
2018-01-06T08:35:51.749Z,2.90
2018-01-06T08:38:17.965Z,3.00
2018-01-06T08:40:44.978Z,3.10
2018-01-06T08:43:11.076Z,3.10
2018-01-06T08:45:37.374Z,3.20
2018-01-06T08:48:03.617Z,3.30
2018-01-06T08:50:29.814Z,3.40
2018-01-06T08:52:56.078Z,3.50
2018-01-06T08:55:22.271Z,3.60
2018-01-06T08:57:48.550Z,3.60
2018-01-06T09:00:14.943Z,3.70
2018-01-06T09:02:41.268Z,3.80
2018-01-06T09:05:07.527Z,3.80
2018-01-06T09:07:33.698Z,3.90
2018-01-06T09:10:00.654Z,4.00
2018-01-06T09:12:27.038Z,4.00
2018-01-06T09:14:53.366Z,4.10
2018-01-06T09:17:19.571Z,4.20
2018-01-06T09:19:45.867Z,4.30
2018-01-06T09:22:12.807Z,4.50
2018-01-06T09:24:39.750Z,4.60
2018-01-06T09:27:05.941Z,4.60
2018-01-06T09:29:32.184Z,4.70
2018-01-06T09:31:59.119Z,4.90
2018-01-06T09:34:25.424Z,4.90
2018-01-06T09:36:51.661Z,5.10
2018-01-06T09:39:17.931Z,5.20
2018-01-06T09:41:44.954Z,5.50
2018-01-06T09:44:11.237Z,5.50
2018-01-06T09:46:37.460Z,5.70
2018-01-06T09:49:03.723Z,5.70
2018-01-06T09:51:29.986Z,5.80
2018-01-06T09:53:57.005Z,6.20
2018-01-06T09:56:23.203Z,6.20
2018-01-06T09:58:49.471Z,6.30
2018-01-06T10:01:15.740Z,6.50
2018-01-06T10:03:42.013Z,6.60
2018-01-06T10:06:08.194Z,6.70
2018-01-06T10:08:34.499Z,6.90
2018-01-06T10:11:00.712Z,7.10
2018-01-06T10:13:27.814Z,7.60
2018-01-06T10:15:54.028Z,7.60
2018-01-06T10:18:20.318Z,7.80
2018-01-06T10:20:47.287Z,8.10
2018-01-06T10:23:13.767Z,8.00
2018-01-06T10:25:40.094Z,8.20
2018-01-06T10:28:06.286Z,8.30
2018-01-06T10:30:32.494Z,8.40
2018-01-06T10:32:58.673Z,8.40
2018-01-06T10:35:24.924Z,8.40
2018-01-06T10:37:51.980Z,8.20
2018-01-06T10:40:19.099Z,8.20
2018-01-06T10:42:45.596Z,8.20
2018-01-06T10:45:12.059Z,8.10
2018-01-06T10:47:38.321Z,8.10
2018-01-06T10:50:05.302Z,8.00
2018-01-06T10:52:31.480Z,8.00
2018-01-06T10:54:58.416Z,8.00
2018-01-06T10:57:24.618Z,8.00
2018-01-06T10:59:50.827Z,8.00
2018-01-06T11:02:16.981Z,8.00
2018-01-06T11:04:43.357Z,8.00
2018-01-06T11:07:09.671Z,8.00
2018-01-06T11:09:36.675Z,8.00
2018-01-06T11:12:03.144Z,7.90
2018-01-06T11:14:30.321Z,7.90
2018-01-06T11:16:56.510Z,7.90
2018-01-06T11:19:22.758Z,7.90
2018-01-06T11:21:48.975Z,7.90
2018-01-06T11:24:15.886Z,7.90
2018-01-06T11:26:42.020Z,7.90
2018-01-06T11:29:08.305Z,7.90
2018-01-06T11:31:34.500Z,7.90
2018-01-06T11:34:01.614Z,7.90
2018-01-06T11:36:27.824Z,7.90
2018-01-06T11:38:54.005Z,7.90
2018-01-06T11:41:20.957Z,7.90
2018-01-06T11:43:47.093Z,7.80
2018-01-06T11:46:13.450Z,7.80
2018-01-06T11:48:39.624Z,7.80
2018-01-06T11:51:06.566Z,7.80
2018-01-06T11:53:33.640Z,7.80
2018-01-06T11:55:59.879Z,7.70
2018-01-06T11:58:26.058Z,7.80
2018-01-06T12:00:53.221Z,7.70
2018-01-06T12:03:20.149Z,7.70
2018-01-06T12:05:47.168Z,7.80
2018-01-06T12:08:13.423Z,7.70
2018-01-06T12:10:40.533Z,7.70
2018-01-06T12:13:06.796Z,7.70
2018-01-06T12:15:33.736Z,7.70
2018-01-06T12:17:59.874Z,7.70
2018-01-06T12:20:26.792Z,7.80
2018-01-06T12:22:53.003Z,7.70
2018-01-06T12:25:19.244Z,7.70
2018-01-06T12:27:45.449Z,7.70
2018-01-06T12:30:11.865Z,7.80
2018-01-06T12:32:38.171Z,7.80
2018-01-06T12:35:04.409Z,7.80
2018-01-06T12:37:30.554Z,7.80
2018-01-06T12:39:56.725Z,7.70
2018-01-06T12:42:22.867Z,7.70
2018-01-06T12:44:49.202Z,7.70
2018-01-06T12:47:15.580Z,7.70
2018-01-06T12:49:41.894Z,7.60
2018-01-06T12:52:08.249Z,7.60
2018-01-06T12:54:34.748Z,7.60
2018-01-06T12:57:01.111Z,7.60
2018-01-06T12:59:27.324Z,7.60
2018-01-06T13:01:53.649Z,7.60
2018-01-06T13:04:19.897Z,7.60
2018-01-06T13:06:46.165Z,7.50
2018-01-06T13:09:12.373Z,7.60
2018-01-06T13:11:39.419Z,7.40
2018-01-06T13:14:06.350Z,7.40
2018-01-06T13:16:33.322Z,7.40
2018-01-06T13:19:00.318Z,7.40
2018-01-06T13:21:26.615Z,7.30
2018-01-06T13:23:52.925Z,7.30
2018-01-06T13:26:19.912Z,7.30
2018-01-06T13:28:46.108Z,7.30
2018-01-06T13:31:12.336Z,7.30
2018-01-06T13:33:38.606Z,7.30
2018-01-06T13:36:04.836Z,7.30
2018-01-06T13:38:31.147Z,7.20
2018-01-06T13:40:57.310Z,7.20
2018-01-06T13:43:23.552Z,7.20
2018-01-06T13:45:50.497Z,7.20
2018-01-06T13:48:17.526Z,7.10
2018-01-06T13:50:43.709Z,7.10
2018-01-06T13:53:10.076Z,7.10
2018-01-06T13:55:36.304Z,7.00
2018-01-06T13:58:02.702Z,7.00
2018-01-06T14:00:28.987Z,7.00
2018-01-06T14:02:56.026Z,6.90
2018-01-06T14:05:22.990Z,6.90
2018-01-06T14:07:49.337Z,6.90
2018-01-06T14:10:15.680Z,6.90
2018-01-06T14:12:41.819Z,6.80
2018-01-06T14:15:08.067Z,6.80
2018-01-06T14:17:34.375Z,6.80
2018-01-06T14:20:00.595Z,6.80
2018-01-06T14:22:27.765Z,6.80
2018-01-06T14:24:53.933Z,6.70
2018-01-06T14:27:20.233Z,6.70
2018-01-06T14:29:46.558Z,6.70
2018-01-06T14:32:12.887Z,6.70
2018-01-06T14:34:39.101Z,6.60
2018-01-06T14:37:05.332Z,6.60
2018-01-06T14:39:31.605Z,6.60
2018-01-06T14:41:57.846Z,6.60
2018-01-06T14:44:24.130Z,6.60
2018-01-06T14:46:51.076Z,6.50
2018-01-06T14:49:18.056Z,6.50
2018-01-06T14:51:44.278Z,6.50
2018-01-06T14:54:10.458Z,6.40
2018-01-06T14:56:36.755Z,6.40
2018-01-06T14:59:02.952Z,6.40
2018-01-06T15:01:29.229Z,6.40
2018-01-06T15:03:55.551Z,6.40
2018-01-06T15:06:21.803Z,6.30
2018-01-06T15:08:48.733Z,6.30
2018-01-06T15:11:15.032Z,6.20
2018-01-06T15:13:41.269Z,6.20
2018-01-06T15:16:07.501Z,6.20
2018-01-06T15:18:33.637Z,6.20
2018-01-06T15:20:59.833Z,6.20
2018-01-06T15:23:26.013Z,6.20
2018-01-06T15:25:52.196Z,6.20
2018-01-06T15:28:18.537Z,6.20
2018-01-06T15:30:44.824Z,6.10
2018-01-06T15:33:11.042Z,6.10
2018-01-06T15:35:37.200Z,6.10
2018-01-06T15:38:03.415Z,6.00
2018-01-06T15:40:29.624Z,6.00
2018-01-06T15:42:56.003Z,6.00
2018-01-06T15:45:22.222Z,6.00
2018-01-06T15:47:48.420Z,6.00
2018-01-06T15:50:14.667Z,6.00
2018-01-06T15:52:40.817Z,5.90
2018-01-06T15:55:07.022Z,5.90
2018-01-06T15:57:33.188Z,5.90
2018-01-06T15:59:59.385Z,5.90
2018-01-06T16:02:25.583Z,5.80
2018-01-06T16:04:51.940Z,5.80
2018-01-06T16:07:18.164Z,5.80
2018-01-06T16:09:44.429Z,5.70
2018-01-06T16:12:11.296Z,5.70
2018-01-06T16:14:37.498Z,5.70
2018-01-06T16:17:04.482Z,5.70
2018-01-06T16:19:30.768Z,5.70
2018-01-06T16:21:57.680Z,5.70
2018-01-06T16:24:24.013Z,5.60
2018-01-06T16:26:50.410Z,5.60
2018-01-06T16:29:16.694Z,5.60
2018-01-06T16:31:43.754Z,5.60
2018-01-06T16:34:10.709Z,5.60
2018-01-06T16:36:36.957Z,5.50
2018-01-06T16:39:04.153Z,5.50
2018-01-06T16:41:31.499Z,5.60
2018-01-06T16:43:57.640Z,5.60
2018-01-06T16:46:23.859Z,5.60
2018-01-06T16:48:50.008Z,5.60
2018-01-06T16:51:16.936Z,5.60
2018-01-06T16:53:43.174Z,5.50
2018-01-06T16:56:10.239Z,5.60
2018-01-06T16:58:36.480Z,5.60
2018-01-06T17:01:02.778Z,5.60
2018-01-06T17:03:29.781Z,5.60
2018-01-06T17:05:55.970Z,5.60
2018-01-06T17:08:22.232Z,5.60
2018-01-06T17:10:48.394Z,5.60
2018-01-06T17:13:15.295Z,5.50
2018-01-06T17:15:41.553Z,5.50
2018-01-06T17:18:09.664Z,5.50
2018-01-06T17:20:35.855Z,5.50
2018-01-06T17:23:02.906Z,5.50
2018-01-06T17:25:29.892Z,5.60
2018-01-06T17:27:56.354Z,5.50
2018-01-06T17:30:23.416Z,5.50
2018-01-06T17:32:49.791Z,5.50
2018-01-06T17:35:16.069Z,5.60
2018-01-06T17:37:42.310Z,5.60
2018-01-06T17:40:08.540Z,5.50
2018-01-06T17:42:35.554Z,5.50
2018-01-06T17:45:01.780Z,5.50
2018-01-06T17:47:27.940Z,5.50
2018-01-06T17:49:54.975Z,5.60
2018-01-06T17:52:21.338Z,5.70
2018-01-06T17:54:47.579Z,5.70
2018-01-06T17:57:13.787Z,5.70
2018-01-06T17:59:40.112Z,5.70
2018-01-06T18:02:07.144Z,5.60
2018-01-06T18:04:33.394Z,5.60
2018-01-06T18:06:59.608Z,5.60
2018-01-06T18:09:26.593Z,5.80
2018-01-06T18:11:52.803Z,5.80
2018-01-06T18:14:19.159Z,5.80
2018-01-06T18:16:45.487Z,5.90
2018-01-06T18:19:11.639Z,5.80
2018-01-06T18:21:37.912Z,5.90
2018-01-06T18:24:04.143Z,5.80
2018-01-06T18:26:30.403Z,5.90
2018-01-06T18:28:56.650Z,5.80
2018-01-06T18:31:23.174Z,5.80
2018-01-06T18:33:49.322Z,5.80
2018-01-06T18:36:16.233Z,5.80
2018-01-06T18:38:42.586Z,5.70
2018-01-06T18:41:08.790Z,5.80
2018-01-06T18:43:34.975Z,5.80
2018-01-06T18:46:01.490Z,5.80
2018-01-06T18:48:28.497Z,5.80
2018-01-06T18:50:54.697Z,5.70
2018-01-06T18:53:20.881Z,5.70
2018-01-06T18:55:48.019Z,5.80
2018-01-06T18:58:15.190Z,5.70
2018-01-06T19:00:41.688Z,5.70
2018-01-06T19:03:08.008Z,5.70
2018-01-06T19:05:34.189Z,5.70
2018-01-06T19:08:00.671Z,5.70
2018-01-06T19:10:27.705Z,5.70
2018-01-06T19:12:54.033Z,5.70
2018-01-06T19:15:20.262Z,5.70
2018-01-06T19:17:46.415Z,5.70
2018-01-06T19:20:12.771Z,5.60
2018-01-06T19:22:39.160Z,5.70
2018-01-06T19:25:05.397Z,5.70
2018-01-06T19:27:31.848Z,5.70
2018-01-06T19:29:58.901Z,5.60
2018-01-06T19:32:25.966Z,5.60
2018-01-06T19:34:52.255Z,5.60
2018-01-06T19:37:18.427Z,5.50
2018-01-06T19:39:45.111Z,5.60
2018-01-06T19:42:12.317Z,5.60
2018-01-06T19:44:38.612Z,5.60
2018-01-06T19:47:05.538Z,5.60
2018-01-06T19:49:31.706Z,5.50
2018-01-06T19:51:58.100Z,5.50
2018-01-06T19:54:24.431Z,5.50
2018-01-06T19:56:50.601Z,5.50
2018-01-06T19:59:17.803Z,5.40
2018-01-06T20:01:44.090Z,5.40
2018-01-06T20:04:10.420Z,5.40
2018-01-06T20:06:36.875Z,5.30
2018-01-06T20:09:03.339Z,5.30
2018-01-06T20:11:30.399Z,5.30
2018-01-06T20:13:56.732Z,5.30
2018-01-06T20:16:22.916Z,5.20
2018-01-06T20:18:49.214Z,5.20
2018-01-06T20:21:15.451Z,5.20
2018-01-06T20:23:41.736Z,5.10
2018-01-06T20:26:08.688Z,5.00
2018-01-06T20:28:34.936Z,5.00
2018-01-06T20:31:01.231Z,5.00
2018-01-06T20:33:28.859Z,5.00
2018-01-06T20:35:55.103Z,5.00
2018-01-06T20:38:22.419Z,4.90
2018-01-06T20:40:48.583Z,4.90
2018-01-06T20:43:15.601Z,5.00
2018-01-06T20:45:41.868Z,5.00
2018-01-06T20:48:08.911Z,5.00
2018-01-06T20:50:35.802Z,5.00
2018-01-06T20:53:01.980Z,4.90
2018-01-06T20:55:28.965Z,5.00
2018-01-06T20:57:55.217Z,4.90
2018-01-06T21:00:21.685Z,5.00
2018-01-06T21:02:48.733Z,5.10
2018-01-06T21:05:15.709Z,5.00
2018-01-06T21:07:41.980Z,5.00
2018-01-06T21:10:08.204Z,5.00
2018-01-06T21:12:34.381Z,5.00
2018-01-06T21:15:00.572Z,5.00
2018-01-06T21:17:27.593Z,5.10
2018-01-06T21:19:53.804Z,5.10
2018-01-06T21:22:20.028Z,5.00
2018-01-06T21:24:46.254Z,5.10
2018-01-06T21:27:12.510Z,5.00
2018-01-06T21:29:38.832Z,5.00
2018-01-06T21:32:05.159Z,5.00
2018-01-06T21:34:31.297Z,5.00
2018-01-06T21:36:57.546Z,4.90
2018-01-06T21:39:24.656Z,4.90
2018-01-06T21:41:51.063Z,4.90
2018-01-06T21:44:17.237Z,4.90
2018-01-06T21:46:44.159Z,4.90
2018-01-06T21:49:10.398Z,4.90
2018-01-06T21:51:36.573Z,4.90
2018-01-06T21:54:02.833Z,4.90
2018-01-06T21:56:29.047Z,4.80
2018-01-06T21:58:55.449Z,4.80
2018-01-06T22:01:21.609Z,4.90
2018-01-06T22:03:47.840Z,4.90
2018-01-06T22:06:14.030Z,4.90
2018-01-06T22:08:40.223Z,4.90
2018-01-06T22:11:07.252Z,4.90
2018-01-06T22:13:33.536Z,4.90
2018-01-06T22:15:59.961Z,4.90
2018-01-06T22:18:26.339Z,4.80
2018-01-06T22:20:52.556Z,4.90
2018-01-06T22:23:18.737Z,4.90
2018-01-06T22:25:45.189Z,4.80
2018-01-06T22:28:11.466Z,4.80
2018-01-06T22:30:37.682Z,4.80
2018-01-06T22:33:04.255Z,4.70
2018-01-06T22:35:31.397Z,4.70
2018-01-06T22:37:58.426Z,4.70
2018-01-06T22:40:24.616Z,4.60
2018-01-06T22:42:51.072Z,4.60
2018-01-06T22:45:17.328Z,4.50
2018-01-06T22:47:43.861Z,4.50
2018-01-06T22:50:10.794Z,4.50
2018-01-06T22:52:37.850Z,4.40
2018-01-06T22:55:04.775Z,4.40
2018-01-06T22:57:30.909Z,4.40
2018-01-06T22:59:57.835Z,4.40
2018-01-06T23:02:24.007Z,4.40
2018-01-06T23:04:50.433Z,4.40
2018-01-06T23:07:16.764Z,4.40
2018-01-06T23:09:43.050Z,4.30
2018-01-06T23:12:09.255Z,4.20
2018-01-06T23:14:35.513Z,4.20
2018-01-06T23:17:01.732Z,4.10
2018-01-06T23:19:27.954Z,4.10
2018-01-06T23:21:54.790Z,4.00
2018-01-06T23:24:20.996Z,4.00
2018-01-06T23:26:48.122Z,4.00
2018-01-06T23:29:14.550Z,4.00
2018-01-06T23:31:40.769Z,3.90
2018-01-06T23:34:06.972Z,3.90
2018-01-06T23:36:33.866Z,3.90
2018-01-06T23:39:00.044Z,3.90
2018-01-06T23:41:26.998Z,3.90
2018-01-06T23:43:54.131Z,3.90
2018-01-06T23:46:21.064Z,3.80
2018-01-06T23:48:47.379Z,3.80
2018-01-06T23:51:13.667Z,3.80
2018-01-06T23:53:40.039Z,3.80
2018-01-06T23:56:06.208Z,3.80
2018-01-06T23:58:32.487Z,3.80
